KSOW

Show Low Regional Airport

Show Low, Arizona, USA
METAR KSOW 250515Z AUTO 16007KT 10SM CLR 16/M05 A3026 RMK AO2
Observed Flight Rules
May-25 @ 05:15 UTC (10 minutes ago) Visual Flight Rules
Wind Visibility Clouds
160° at 7 knots 10 miles
  • Clear skies
Temperatures Readings
Current 16°C / 61°F
Dewpoint -5°C / 23°F
Humidity 23%
Altimeter 30.26" Hg
Pressure 1025 hPa
Elevation 1954
METAR KSOW 250515Z AUTO 16007KT 10SM CLR 16/M05 A3026 RMK AO2
Observed Flight Rules
May-25 @ 05:15 UTC
(10 minutes ago)
VFR
Wind Visibility
160° at 7 knots 10 miles
Clouds
  • Clear skies
Temperature Dewpoint
16°C / 61°F -5°C / 23°F
Humidity Altimeter Pressure
23% 30.26" Hg 1025 hPa